createdAt,value
2023-03-27T00:03:01.912Z,4.00
2023-03-27T00:08:09.579Z,4.20
2023-03-27T00:13:13.864Z,3.50
2023-03-27T00:23:22.644Z,4.90
2023-03-27T00:28:28.941Z,4.30
2023-03-27T00:33:32.441Z,4.20
2023-03-27T00:38:37.053Z,4.50
2023-03-27T00:43:44.064Z,4.40
2023-03-27T00:48:52.304Z,4.00
2023-03-27T00:53:57.558Z,3.90
2023-03-27T01:14:28.830Z,4.20
2023-03-27T01:19:42.161Z,4.70
2023-03-27T01:25:19.782Z,4.70
2023-03-27T01:30:49.300Z,3.60
2023-03-27T01:36:02.806Z,4.50
2023-03-27T01:41:16.513Z,11.70
2023-03-27T01:46:32.039Z,22.40
2023-03-27T01:51:44.426Z,13.10
2023-03-27T01:56:53.959Z,5.50
2023-03-27T02:02:12.148Z,5.00
2023-03-27T02:07:22.313Z,3.90
2023-03-27T02:12:32.914Z,3.80
2023-03-27T02:17:40.417Z,8.00
2023-03-27T02:22:50.995Z,9.00
2023-03-27T02:28:20.411Z,10.40
2023-03-27T02:33:36.120Z,5.00
2023-03-27T02:39:03.898Z,3.70
2023-03-27T02:44:32.940Z,4.20
2023-03-27T02:49:43.085Z,4.20
2023-03-27T02:54:54.075Z,4.10
2023-03-27T03:00:00.889Z,4.20
2023-03-27T03:05:18.040Z,4.10
2023-03-27T03:10:21.828Z,4.20
2023-03-27T03:15:25.241Z,3.50
2023-03-27T03:20:31.522Z,3.90
2023-03-27T03:25:35.764Z,3.20
2023-03-27T03:30:42.283Z,3.40
2023-03-27T03:35:48.601Z,4.40
2023-03-27T03:40:54.409Z,3.10
2023-03-27T03:45:58.482Z,2.70
2023-03-27T03:51:01.930Z,2.70
2023-03-27T03:56:05.986Z,2.80
2023-03-27T04:01:09.369Z,3.00
2023-03-27T04:06:12.883Z,2.80
2023-03-27T04:11:16.399Z,3.60
2023-03-27T04:16:20.078Z,3.20
2023-03-27T04:21:27.008Z,2.80
2023-03-27T04:26:30.377Z,3.50
2023-03-27T04:31:34.803Z,1.90
2023-03-27T04:36:38.283Z,2.30
2023-03-27T04:41:41.699Z,1.50
2023-03-27T04:46:49.289Z,2.20
2023-03-27T04:51:52.663Z,2.60
2023-03-27T04:56:56.162Z,1.80
2023-03-27T05:02:04.499Z,1.80
2023-03-27T05:07:07.879Z,1.90
2023-03-27T05:12:11.489Z,1.30
2023-03-27T05:17:16.850Z,1.30
2023-03-27T05:22:20.269Z,1.10
2023-03-27T05:27:24.391Z,1.20
2023-03-27T05:32:27.928Z,1.00
2023-03-27T05:37:31.322Z,0.90
2023-03-27T05:42:34.834Z,0.70
2023-03-27T05:47:47.132Z,0.80
2023-03-27T05:53:04.705Z,5.60
2023-03-27T05:58:10.256Z,1.40
2023-03-27T06:03:15.091Z,1.20
2023-03-27T06:08:18.730Z,1.00
2023-03-27T06:13:22.144Z,0.90
2023-03-27T06:18:25.558Z,1.10
2023-03-27T06:23:30.300Z,1.10
2023-03-27T06:28:34.020Z,0.90
2023-03-27T06:33:40.208Z,1.20
2023-03-27T06:38:44.232Z,1.30
2023-03-27T06:43:47.643Z,1.10
2023-03-27T06:48:52.132Z,0.90
2023-03-27T06:53:56.006Z,0.90
2023-03-27T06:58:59.530Z,0.70
2023-03-27T07:04:03.151Z,0.70
2023-03-27T07:09:06.453Z,0.90
2023-03-27T07:14:10.164Z,0.80
2023-03-27T07:19:13.678Z,1.10
2023-03-27T07:24:17.295Z,4.10
2023-03-27T07:29:21.119Z,5.30
2023-03-27T07:34:24.763Z,1.80
2023-03-27T07:39:28.054Z,0.90
2023-03-27T07:44:31.672Z,0.50
2023-03-27T07:49:39.944Z,0.60
2023-03-27T07:54:44.438Z,1.00
2023-03-27T07:59:48.363Z,0.70
2023-03-27T08:04:55.645Z,0.70
2023-03-27T08:09:59.282Z,1.00
2023-03-27T08:15:03.028Z,0.70
2023-03-27T08:20:09.794Z,0.70
2023-03-27T08:25:13.821Z,0.70
2023-03-27T08:30:17.737Z,0.50
2023-03-27T08:35:21.538Z,0.70
2023-03-27T08:40:29.085Z,0.50
2023-03-27T08:45:39.559Z,0.50
2023-03-27T08:50:54.134Z,0.60
2023-03-27T09:01:11.818Z,0.50
2023-03-27T09:06:38.576Z,0.30
2023-03-27T09:12:01.855Z,0.50
2023-03-27T09:17:17.701Z,0.40
2023-03-27T09:22:28.853Z,0.30
2023-03-27T09:27:37.933Z,0.50
2023-03-27T09:32:43.198Z,0.50
2023-03-27T09:37:58.692Z,0.60
2023-03-27T09:43:11.495Z,0.50
2023-03-27T09:48:23.601Z,0.60
2023-03-27T09:53:28.245Z,0.60
2023-03-27T09:58:37.292Z,0.70
2023-03-27T10:03:49.386Z,0.90
2023-03-27T10:08:55.593Z,0.60
2023-03-27T10:14:01.814Z,0.30
2023-03-27T10:19:05.382Z,0.60
2023-03-27T10:24:20.071Z,0.50
2023-03-27T10:29:26.365Z,1.10
2023-03-27T10:34:40.231Z,1.80
2023-03-27T10:39:43.814Z,1.30
2023-03-27T10:44:48.781Z,2.20
2023-03-27T10:50:04.874Z,1.00
2023-03-27T10:55:23.442Z,0.70
2023-03-27T11:00:54.428Z,1.20
2023-03-27T11:06:00.375Z,1.10
2023-03-27T11:11:33.072Z,0.50
2023-03-27T11:16:41.502Z,1.00
2023-03-27T11:21:53.721Z,0.70
2023-03-27T11:26:59.957Z,0.60
2023-03-27T11:32:18.162Z,0.10
2023-03-27T11:37:43.381Z,1.30
2023-03-27T11:42:48.136Z,1.90
2023-03-27T11:48:12.912Z,2.00
2023-03-27T11:53:57.426Z,1.60
2023-03-27T11:59:22.254Z,1.40
2023-03-27T12:04:48.796Z,2.00
2023-03-27T12:10:10.462Z,0.80
2023-03-27T12:15:37.706Z,0.60
2023-03-27T12:20:52.800Z,0.70
2023-03-27T12:26:09.144Z,2.00
2023-03-27T12:31:58.207Z,1.70
2023-03-27T12:37:04.599Z,1.80
2023-03-27T12:42:15.571Z,0.80
2023-03-27T12:47:25.171Z,2.00
2023-03-27T12:52:28.841Z,1.00
2023-03-27T12:57:41.743Z,1.00
2023-03-27T13:03:19.730Z,2.00
2023-03-27T13:08:23.318Z,1.50
2023-03-27T13:14:05.029Z,1.60
2023-03-27T13:19:30.056Z,0.60
2023-03-27T13:24:52.613Z,1.20
2023-03-27T13:29:58.164Z,0.90
2023-03-27T13:35:21.355Z,1.30
2023-03-27T13:40:36.879Z,1.00
2023-03-27T13:45:48.381Z,1.50
2023-03-27T13:51:13.576Z,11.20
2023-03-27T13:56:37.596Z,1.30
2023-03-27T14:02:08.792Z,5.10
2023-03-27T14:07:43.926Z,0.90
2023-03-27T14:12:55.806Z,4.60
2023-03-27T14:18:26.662Z,3.00
2023-03-27T14:23:42.071Z,0.60
2023-03-27T14:28:55.210Z,1.40
2023-03-27T14:34:04.344Z,1.60
2023-03-27T14:39:18.419Z,0.80
2023-03-27T14:44:24.179Z,1.50
2023-03-27T14:49:36.192Z,1.40
2023-03-27T14:54:52.233Z,2.00
2023-03-27T14:59:58.995Z,1.60
2023-03-27T15:05:12.198Z,2.40
2023-03-27T15:10:20.933Z,3.50
2023-03-27T15:15:43.085Z,1.70
2023-03-27T15:20:46.955Z,3.20
2023-03-27T15:26:05.107Z,1.00
2023-03-27T15:31:10.187Z,1.20
2023-03-27T15:36:27.087Z,0.90
2023-03-27T15:41:33.374Z,1.50
2023-03-27T15:46:52.370Z,1.30
2023-03-27T15:51:57.756Z,1.00
2023-03-27T15:57:09.862Z,0.70
2023-03-27T16:02:17.302Z,0.70
2023-03-27T16:07:27.729Z,0.50
2023-03-27T16:12:34.535Z,1.70
2023-03-27T16:17:45.204Z,1.80
2023-03-27T16:22:49.412Z,0.90
2023-03-27T16:27:58.764Z,1.20
2023-03-27T16:33:03.609Z,0.90
2023-03-27T16:38:07.335Z,3.40
2023-03-27T16:43:11.057Z,3.60
2023-03-27T16:48:14.991Z,3.20
2023-03-27T16:53:18.501Z,2.50
2023-03-27T16:58:22.216Z,3.20
2023-03-27T17:03:25.633Z,2.80
2023-03-27T17:08:31.398Z,3.40
2023-03-27T17:13:36.243Z,7.20
2023-03-27T17:18:39.685Z,4.70
2023-03-27T17:23:46.354Z,1.70
2023-03-27T17:28:49.867Z,0.90
2023-03-27T17:33:53.342Z,0.90
2023-03-27T17:38:56.793Z,1.40
2023-03-27T17:44:00.215Z,1.60
2023-03-27T17:49:04.145Z,1.20
2023-03-27T17:54:07.546Z,1.40
2023-03-27T17:59:10.855Z,0.80
2023-03-27T18:04:14.404Z,2.50
2023-03-27T18:09:17.786Z,1.20
2023-03-27T18:14:21.514Z,1.90
2023-03-27T18:19:25.536Z,1.50
2023-03-27T18:24:29.050Z,1.40
2023-03-27T18:29:34.068Z,1.10
2023-03-27T18:34:37.411Z,2.30
2023-03-27T18:39:40.896Z,2.80
2023-03-27T18:44:44.859Z,1.60
2023-03-27T18:49:48.465Z,1.60
2023-03-27T18:54:51.891Z,2.20
2023-03-27T18:59:55.596Z,1.90
2023-03-27T19:04:58.909Z,2.10
2023-03-27T19:10:02.662Z,1.70
2023-03-27T19:15:17.222Z,1.00
2023-03-27T19:20:23.777Z,1.40
2023-03-27T19:25:27.922Z,1.00
2023-03-27T19:30:32.638Z,0.90
2023-03-27T19:35:36.224Z,1.40
2023-03-27T19:40:39.804Z,2.10
2023-03-27T19:45:58.378Z,1.60
2023-03-27T19:51:08.206Z,1.50
2023-03-27T19:56:11.683Z,2.20
2023-03-27T20:01:15.267Z,1.90
2023-03-27T20:06:19.803Z,2.60
2023-03-27T20:11:23.520Z,2.70
2023-03-27T20:16:28.252Z,2.40
2023-03-27T20:21:39.881Z,2.90
2023-03-27T20:26:48.239Z,3.20
2023-03-27T20:31:51.969Z,3.20
2023-03-27T20:36:59.274Z,2.80
2023-03-27T20:42:02.544Z,2.60
2023-03-27T20:47:12.585Z,3.50
2023-03-27T20:52:18.990Z,3.20
2023-03-27T20:57:22.835Z,3.10
2023-03-27T21:02:26.366Z,2.60
2023-03-27T21:07:34.397Z,4.00
2023-03-27T21:12:39.879Z,4.10
2023-03-27T21:17:44.059Z,4.50
2023-03-27T21:22:52.987Z,4.70
2023-03-27T21:27:56.531Z,5.60
2023-03-27T21:32:59.941Z,6.50
2023-03-27T21:38:04.676Z,6.10
2023-03-27T21:43:09.252Z,8.20
2023-03-27T21:48:12.580Z,11.80
2023-03-27T21:53:17.459Z,8.20
2023-03-27T21:58:21.078Z,5.40
2023-03-27T22:03:25.923Z,4.50
2023-03-27T22:08:29.234Z,5.10
2023-03-27T22:13:36.432Z,5.90
2023-03-27T22:18:40.768Z,4.20
2023-03-27T22:23:45.030Z,4.30
2023-03-27T22:33:52.241Z,3.90
2023-03-27T22:38:55.682Z,4.00
2023-03-27T22:44:01.460Z,4.00
2023-03-27T22:49:04.937Z,4.30
2023-03-27T22:54:08.554Z,4.20
2023-03-27T22:59:12.738Z,3.60
2023-03-27T23:04:16.300Z,4.40
2023-03-27T23:09:19.637Z,4.40
2023-03-27T23:14:23.639Z,4.10
2023-03-27T23:19:27.053Z,6.90
2023-03-27T23:24:30.671Z,7.40
2023-03-27T23:29:34.495Z,5.80
2023-03-27T23:34:37.806Z,6.10
2023-03-27T23:39:41.728Z,5.60
2023-03-27T23:44:45.139Z,5.20
2023-03-27T23:49:49.065Z,5.20
2023-03-27T23:54:52.710Z,6.10
2023-03-27T23:59:56.100Z,8.20
